Time;durP1;ratioP1;P1;durP2;ratioP2;P2;SDS_P1;SDS_P2;PMS_P1;PMS_P2;Temp;Humidity;BMP_temperature;BMP_pressure;BME280_temperature;BME280_humidity;BME280_pressure;Samples;Min_cycle;Max_cycle;Signal;HPM_P1;HPM_P2
2019/09/16 00:00:55;;;;;;;2.87;2.21;;;;;;;21.42;55.73;101042.23;;;;-47
2019/09/16 00:03:55;;;;;;;2.28;2.08;;;;;;;21.42;55.80;101047.11;;;;-47
2019/09/16 00:06:55;;;;;;;2.22;2.02;;;;;;;21.42;55.82;101050.98;;;;-47
2019/09/16 00:09:55;;;;;;;2.40;2.20;;;;;;;21.41;55.75;101047.61;;;;-47
2019/09/16 00:12:55;;;;;;;2.32;2.12;;;;;;;21.40;55.79;101044.61;;;;-47
2019/09/16 00:15:55;;;;;;;2.11;1.97;;;;;;;21.41;55.80;101051.44;;;;-47
2019/09/16 00:18:55;;;;;;;2.77;2.19;;;;;;;21.39;55.79;101054.34;;;;-47
2019/09/16 00:21:55;;;;;;;2.34;2.14;;;;;;;21.40;55.74;101060.80;;;;-47
2019/09/16 00:24:55;;;;;;;2.24;2.04;;;;;;;21.39;55.81;101058.23;;;;-47
2019/09/16 00:27:55;;;;;;;2.11;2.00;;;;;;;21.39;55.77;101054.03;;;;-47
2019/09/16 00:30:55;;;;;;;2.60;2.11;;;;;;;21.38;55.80;101052.64;;;;-47
2019/09/16 00:33:55;;;;;;;2.51;2.07;;;;;;;21.38;55.77;101056.95;;;;-47
2019/09/16 00:36:55;;;;;;;2.86;2.15;;;;;;;21.37;55.76;101055.27;;;;-48
2019/09/16 00:39:55;;;;;;;2.29;2.09;;;;;;;21.37;55.76;101053.64;;;;-47
2019/09/16 00:42:55;;;;;;;2.26;2.09;;;;;;;21.37;55.80;101051.13;;;;-47
2019/09/16 00:45:55;;;;;;;2.31;2.11;;;;;;;21.37;55.77;101050.28;;;;-47
2019/09/16 00:48:55;;;;;;;2.01;1.90;;;;;;;21.37;55.79;101049.41;;;;-47
2019/09/16 00:51:55;;;;;;;2.37;2.17;;;;;;;21.36;55.82;101045.43;;;;-47
2019/09/16 00:54:55;;;;;;;2.67;2.23;;;;;;;21.36;55.81;101037.09;;;;-47
2019/09/16 00:57:55;;;;;;;2.40;2.20;;;;;;;21.35;55.79;101030.97;;;;-47
2019/09/16 01:00:55;;;;;;;2.30;2.10;;;;;;;21.35;55.78;101029.29;;;;-47
2019/09/16 01:03:55;;;;;;;2.35;2.15;;;;;;;21.34;55.80;101025.38;;;;-47
2019/09/16 01:06:55;;;;;;;2.24;2.03;;;;;;;21.34;55.84;101018.72;;;;-47
2019/09/16 01:09:55;;;;;;;2.48;2.28;;;;;;;21.34;55.77;101020.64;;;;-47
2019/09/16 01:12:55;;;;;;;3.23;2.35;;;;;;;21.34;55.78;101024.67;;;;-47
2019/09/16 01:15:55;;;;;;;2.43;2.23;;;;;;;21.33;55.83;101025.56;;;;-47
2019/09/16 01:18:55;;;;;;;2.27;2.07;;;;;;;21.33;55.83;101026.47;;;;-47
2019/09/16 01:21:55;;;;;;;2.19;1.99;;;;;;;21.32;55.79;101023.78;;;;-47
2019/09/16 01:24:55;;;;;;;2.13;2.00;;;;;;;21.32;55.76;101025.52;;;;-47
2019/09/16 01:27:55;;;;;;;3.13;2.11;;;;;;;21.33;55.83;101028.08;;;;-47
2019/09/16 01:30:55;;;;;;;2.33;2.11;;;;;;;21.32;55.76;101022.44;;;;-47
2019/09/16 01:33:55;;;;;;;2.40;2.20;;;;;;;21.32;55.78;101020.88;;;;-47
2019/09/16 01:36:55;;;;;;;2.39;2.19;;;;;;;21.31;55.79;101024.63;;;;-47
2019/09/16 01:39:55;;;;;;;2.31;2.11;;;;;;;21.31;55.78;101024.87;;;;-47
2019/09/16 01:42:55;;;;;;;2.27;2.07;;;;;;;21.30;55.82;101026.87;;;;-49
2019/09/16 01:45:55;;;;;;;2.37;2.17;;;;;;;21.30;55.80;101031.31;;;;-59
2019/09/16 01:48:55;;;;;;;2.37;2.17;;;;;;;21.31;55.73;101035.22;;;;-59
2019/09/16 01:51:55;;;;;;;2.49;2.18;;;;;;;21.30;55.77;101037.36;;;;-59
2019/09/16 01:54:55;;;;;;;2.48;2.20;;;;;;;21.30;55.78;101023.65;;;;-58
2019/09/16 01:57:55;;;;;;;2.34;2.14;;;;;;;21.29;55.79;101014.86;;;;-47
2019/09/16 02:00:55;;;;;;;2.28;2.08;;;;;;;21.29;55.76;101017.92;;;;-48
2019/09/16 02:03:55;;;;;;;2.30;2.07;;;;;;;21.29;55.73;101020.01;;;;-53
2019/09/16 02:06:55;;;;;;;2.40;2.20;;;;;;;21.29;55.73;101018.32;;;;-53
2019/09/16 02:09:55;;;;;;;2.29;2.09;;;;;;;21.28;55.78;101012.30;;;;-47
2019/09/16 02:12:55;;;;;;;2.40;2.19;;;;;;;21.28;55.72;101012.90;;;;-49
2019/09/16 02:15:55;;;;;;;2.27;2.07;;;;;;;21.28;55.72;101015.66;;;;-59
2019/09/16 02:18:55;;;;;;;2.85;2.17;;;;;;;21.28;55.73;101007.09;;;;-49
2019/09/16 02:21:55;;;;;;;2.31;2.11;;;;;;;21.28;55.79;101006.02;;;;-53
2019/09/16 02:24:57;;;;;;;2.38;2.15;;;;;;;21.28;55.72;101003.16;;;;-59
2019/09/16 02:27:55;;;;;;;2.35;2.15;;;;;;;21.27;55.75;101006.75;;;;-59
2019/09/16 02:30:55;;;;;;;2.30;2.10;;;;;;;21.27;55.77;101002.61;;;;-46
2019/09/16 02:33:55;;;;;;;2.14;2.04;;;;;;;21.27;55.77;100996.80;;;;-47
2019/09/16 02:36:55;;;;;;;2.35;2.15;;;;;;;21.26;55.69;100996.79;;;;-49
2019/09/16 02:39:55;;;;;;;2.37;2.17;;;;;;;21.26;55.78;100995.34;;;;-59
2019/09/16 02:42:55;;;;;;;2.69;2.17;;;;;;;21.26;55.75;100997.80;;;;-47
2019/09/16 02:45:55;;;;;;;2.39;2.19;;;;;;;21.26;55.73;100998.97;;;;-47
2019/09/16 02:48:55;;;;;;;2.34;2.14;;;;;;;21.25;55.78;100998.32;;;;-49
2019/09/16 02:51:55;;;;;;;2.26;2.06;;;;;;;21.25;55.69;100998.16;;;;-49
2019/09/16 02:54:55;;;;;;;2.42;2.22;;;;;;;21.25;55.68;101000.00;;;;-47
2019/09/16 02:57:55;;;;;;;2.20;2.02;;;;;;;21.24;55.72;100995.36;;;;-53
2019/09/16 03:00:55;;;;;;;2.21;1.97;;;;;;;21.25;55.70;100995.56;;;;-49
2019/09/16 03:03:55;;;;;;;2.53;2.29;;;;;;;21.25;55.69;100997.48;;;;-52
2019/09/16 03:06:55;;;;;;;2.48;2.28;;;;;;;21.24;55.69;100999.61;;;;-59
2019/09/16 03:09:55;;;;;;;2.40;2.20;;;;;;;21.24;55.70;100987.34;;;;-49
2019/09/16 03:12:55;;;;;;;2.40;2.21;;;;;;;21.23;55.66;100987.14;;;;-52
2019/09/16 03:15:55;;;;;;;2.40;2.20;;;;;;;21.24;55.64;100986.52;;;;-49
2019/09/16 03:18:55;;;;;;;2.30;2.10;;;;;;;21.24;55.66;100984.66;;;;-49
2019/09/16 03:21:55;;;;;;;2.34;2.14;;;;;;;21.23;55.66;100979.69;;;;-47
2019/09/16 03:24:55;;;;;;;2.41;2.21;;;;;;;21.23;55.61;100983.89;;;;-47
2019/09/16 03:27:55;;;;;;;2.42;2.13;;;;;;;21.23;55.64;100985.73;;;;-49
2019/09/16 03:30:55;;;;;;;2.26;2.07;;;;;;;21.22;55.64;100985.69;;;;-53
2019/09/16 03:33:55;;;;;;;2.50;2.30;;;;;;;21.22;55.72;100979.19;;;;-49
2019/09/16 03:36:55;;;;;;;2.42;2.22;;;;;;;21.22;55.62;100974.09;;;;-59
2019/09/16 03:39:55;;;;;;;2.84;2.24;;;;;;;21.22;55.59;100977.86;;;;-47
2019/09/16 03:42:55;;;;;;;2.49;2.29;;;;;;;21.22;55.58;100974.77;;;;-53
2019/09/16 03:45:55;;;;;;;2.51;2.31;;;;;;;21.22;55.63;100970.29;;;;-49
2019/09/16 03:48:55;;;;;;;2.55;2.35;;;;;;;21.22;55.66;100964.91;;;;-49
2019/09/16 03:51:55;;;;;;;2.29;2.09;;;;;;;21.21;55.59;100961.69;;;;-53
2019/09/16 03:54:55;;;;;;;2.37;2.17;;;;;;;21.20;55.65;100960.91;;;;-49
2019/09/16 03:57:55;;;;;;;2.17;2.07;;;;;;;21.20;55.69;100961.23;;;;-53
2019/09/16 04:00:55;;;;;;;2.26;2.06;;;;;;;21.20;55.64;100964.09;;;;-53
2019/09/16 04:03:55;;;;;;;2.20;2.07;;;;;;;21.19;55.70;100959.84;;;;-59
2019/09/16 04:06:55;;;;;;;2.25;2.13;;;;;;;21.20;55.67;100954.58;;;;-49
2019/09/16 04:09:55;;;;;;;2.29;2.09;;;;;;;21.19;55.68;100956.48;;;;-49
2019/09/16 04:12:55;;;;;;;2.32;2.12;;;;;;;21.20;55.70;100965.50;;;;-49
2019/09/16 04:15:55;;;;;;;2.18;2.04;;;;;;;21.19;55.66;100966.41;;;;-49
2019/09/16 04:18:55;;;;;;;2.45;2.25;;;;;;;21.20;55.65;100966.61;;;;-48
2019/09/16 04:21:55;;;;;;;2.34;2.14;;;;;;;21.20;55.61;100973.83;;;;-53
2019/09/16 04:24:55;;;;;;;2.43;2.23;;;;;;;21.20;55.66;100977.25;;;;-59
2019/09/16 04:27:55;;;;;;;2.49;2.29;;;;;;;21.20;55.60;100973.84;;;;-53
2019/09/16 04:30:55;;;;;;;2.38;2.18;;;;;;;21.20;55.65;100970.81;;;;-53
2019/09/16 04:33:55;;;;;;;5.03;3.26;;;;;;;21.12;53.96;100963.89;;;;-51
2019/09/16 04:36:55;;;;;;;4.61;3.44;;;;;;;20.97;53.21;100961.56;;;;-50
2019/09/16 04:39:55;;;;;;;6.69;3.85;;;;;;;20.88;53.71;100962.05;;;;-59
2019/09/16 04:42:55;;;;;;;4.03;3.40;;;;;;;20.90;53.74;100964.55;;;;-58
2019/09/16 04:45:55;;;;;;;4.49;3.59;;;;;;;20.90;53.52;100974.12;;;;-59
2019/09/16 04:48:55;;;;;;;4.73;3.62;;;;;;;20.89;53.35;100971.66;;;;-59
2019/09/16 04:51:55;;;;;;;4.20;3.59;;;;;;;20.86;53.19;100970.17;;;;-58
2019/09/16 04:54:55;;;;;;;4.53;3.77;;;;;;;20.84;53.12;100975.72;;;;-49
2019/09/16 04:57:55;;;;;;;4.99;3.98;;;;;;;20.82;53.01;100973.05;;;;-49
2019/09/16 05:00:55;;;;;;;4.58;3.99;;;;;;;20.81;52.92;100979.06;;;;-49
2019/09/16 05:03:55;;;;;;;4.70;3.98;;;;;;;20.78;52.79;100973.16;;;;-49
2019/09/16 05:06:55;;;;;;;4.50;3.94;;;;;;;20.77;52.62;100977.60;;;;-49
2019/09/16 05:09:55;;;;;;;4.52;4.12;;;;;;;20.75;52.62;100978.11;;;;-52
2019/09/16 05:12:55;;;;;;;5.55;3.92;;;;;;;20.78;52.62;100980.20;;;;-52
2019/09/16 05:15:55;;;;;;;5.11;3.95;;;;;;;20.82;52.96;100973.67;;;;-59
2019/09/16 05:18:55;;;;;;;4.89;3.79;;;;;;;20.85;53.09;100967.04;;;;-59
2019/09/16 05:21:55;;;;;;;4.13;3.73;;;;;;;20.89;53.23;100972.56;;;;-49
2019/09/16 05:24:55;;;;;;;4.49;3.71;;;;;;;20.89;53.33;100972.50;;;;-47
2019/09/16 05:27:55;;;;;;;4.13;3.76;;;;;;;20.90;53.36;100970.03;;;;-46
2019/09/16 05:30:55;;;;;;;4.23;3.83;;;;;;;20.92;53.47;100969.55;;;;-46
2019/09/16 05:33:55;;;;;;;4.21;3.74;;;;;;;20.94;53.55;100972.73;;;;-47
2019/09/16 05:36:55;;;;;;;4.05;3.65;;;;;;;20.94;53.66;100975.42;;;;-47
2019/09/16 05:39:55;;;;;;;4.70;3.71;;;;;;;20.94;53.76;100977.59;;;;-47
2019/09/16 05:42:55;;;;;;;4.09;3.39;;;;;;;20.95;53.80;100990.75;;;;-47
2019/09/16 05:45:55;;;;;;;4.21;3.81;;;;;;;20.96;53.83;100994.14;;;;-47
2019/09/16 05:48:55;;;;;;;3.95;3.51;;;;;;;20.95;53.92;100988.80;;;;-47
2019/09/16 05:51:55;;;;;;;3.67;3.37;;;;;;;20.96;54.02;100993.81;;;;-47
2019/09/16 05:54:55;;;;;;;4.43;3.43;;;;;;;20.96;54.04;100983.91;;;;-47
2019/09/16 05:57:55;;;;;;;4.33;3.48;;;;;;;20.96;54.09;100983.58;;;;-47
2019/09/16 06:00:55;;;;;;;3.70;3.40;;;;;;;20.97;54.14;100983.18;;;;-46
2019/09/16 06:03:55;;;;;;;4.63;3.52;;;;;;;20.97;54.20;100981.94;;;;-47
2019/09/16 06:06:55;;;;;;;3.92;3.53;;;;;;;20.96;54.21;100979.98;;;;-47
2019/09/16 06:09:55;;;;;;;3.70;3.40;;;;;;;20.97;54.25;100979.82;;;;-46
2019/09/16 06:12:55;;;;;;;5.17;3.45;;;;;;;20.96;54.28;100981.33;;;;-46
2019/09/16 06:15:55;;;;;;;3.61;3.31;;;;;;;20.97;54.34;100983.34;;;;-47
2019/09/16 06:18:55;;;;;;;3.48;3.17;;;;;;;20.97;54.33;100977.98;;;;-47
2019/09/16 06:21:55;;;;;;;3.30;3.09;;;;;;;20.97;54.41;100978.58;;;;-47
2019/09/16 06:24:55;;;;;;;3.75;3.41;;;;;;;20.97;54.44;100977.73;;;;-47
2019/09/16 06:27:55;;;;;;;4.02;3.27;;;;;;;20.97;54.45;100973.65;;;;-47
2019/09/16 06:30:55;;;;;;;3.37;3.07;;;;;;;20.97;54.43;100972.27;;;;-47
2019/09/16 06:33:55;;;;;;;3.90;3.60;;;;;;;20.98;54.46;100978.29;;;;-47
2019/09/16 06:36:55;;;;;;;3.45;3.15;;;;;;;20.98;54.49;100979.70;;;;-47
2019/09/16 06:39:55;;;;;;;3.69;3.39;;;;;;;20.97;54.49;100978.92;;;;-47
2019/09/16 06:42:55;;;;;;;3.40;3.01;;;;;;;20.98;54.51;100980.14;;;;-47
2019/09/16 06:45:55;;;;;;;3.91;3.51;;;;;;;20.97;54.53;100979.16;;;;-47
2019/09/16 06:48:55;;;;;;;3.54;3.27;;;;;;;20.97;54.51;100977.84;;;;-47
2019/09/16 06:51:55;;;;;;;3.49;3.19;;;;;;;20.97;54.59;100977.58;;;;-47
2019/09/16 06:54:55;;;;;;;4.08;3.33;;;;;;;20.97;54.59;100977.58;;;;-47
2019/09/16 06:57:55;;;;;;;3.41;3.11;;;;;;;20.97;54.63;100979.53;;;;-47
2019/09/16 07:00:55;;;;;;;3.41;3.11;;;;;;;20.97;54.64;100985.70;;;;-47
2019/09/16 07:03:55;;;;;;;3.39;3.09;;;;;;;20.98;54.64;100989.03;;;;-47
2019/09/16 07:06:55;;;;;;;3.55;3.21;;;;;;;20.97;54.65;100985.87;;;;-48
2019/09/16 07:09:55;;;;;;;3.30;3.00;;;;;;;20.97;54.66;100986.92;;;;-47
2019/09/16 07:12:55;;;;;;;3.40;3.10;;;;;;;20.98;54.72;100985.91;;;;-47
2019/09/16 07:15:54;;;;;;;3.30;3.00;;;;;;;20.97;54.68;100986.64;;;;-46
2019/09/16 07:18:55;;;;;;;3.32;3.03;;;;;;;20.97;54.74;100986.70;;;;-46
2019/09/16 07:21:54;;;;;;;3.30;3.00;;;;;;;20.97;54.72;100988.16;;;;-47
2019/09/16 07:24:55;;;;;;;3.35;3.05;;;;;;;20.97;54.74;100985.63;;;;-47
2019/09/16 07:27:55;;;;;;;3.29;2.99;;;;;;;20.97;54.76;100982.55;;;;-48
2019/09/16 07:30:55;;;;;;;3.07;2.82;;;;;;;20.97;54.77;100983.63;;;;-49
2019/09/16 07:33:55;;;;;;;3.23;2.90;;;;;;;20.97;54.76;100975.29;;;;-49
2019/09/16 07:36:55;;;;;;;3.13;2.93;;;;;;;20.98;54.77;100968.55;;;;-49
2019/09/16 07:39:55;;;;;;;3.11;2.85;;;;;;;20.98;54.79;100958.48;;;;-49
2019/09/16 07:42:55;;;;;;;3.71;2.98;;;;;;;20.98;54.78;100967.70;;;;-49
2019/09/16 07:45:55;;;;;;;3.29;3.00;;;;;;;20.98;54.80;100974.42;;;;-49
2019/09/16 07:48:55;;;;;;;3.21;2.95;;;;;;;20.98;54.78;100966.27;;;;-49
2019/09/16 07:51:55;;;;;;;3.29;3.00;;;;;;;20.98;54.81;100971.24;;;;-48
2019/09/16 07:54:55;;;;;;;3.57;2.90;;;;;;;20.98;54.75;100966.54;;;;-48
2019/09/16 07:57:54;;;;;;;3.76;2.88;;;;;;;20.98;54.81;100965.87;;;;-49
2019/09/16 08:00:54;;;;;;;3.17;2.91;;;;;;;20.98;54.77;100964.92;;;;-49
2019/09/16 08:03:55;;;;;;;3.55;2.99;;;;;;;20.98;54.82;100971.41;;;;-49
2019/09/16 08:06:55;;;;;;;3.33;2.88;;;;;;;20.97;54.76;100965.92;;;;-49
2019/09/16 08:09:55;;;;;;;3.47;2.98;;;;;;;20.98;54.82;100974.37;;;;-49
2019/09/16 08:12:55;;;;;;;2.96;2.76;;;;;;;20.98;54.95;100974.93;;;;-48
2019/09/16 08:15:55;;;;;;;3.10;2.85;;;;;;;21.00;54.88;100970.27;;;;-50
2019/09/16 08:18:55;;;;;;;3.13;2.86;;;;;;;21.03;55.01;100972.25;;;;-48
2019/09/16 08:21:55;;;;;;;3.27;2.97;;;;;;;21.08;55.23;100976.37;;;;-49
2019/09/16 08:24:55;;;;;;;4.07;2.84;;;;;;;21.10;55.23;100978.18;;;;-59
2019/09/16 08:27:55;;;;;;;4.93;3.20;;;;;;;21.13;55.35;100982.08;;;;-49
2019/09/16 08:30:55;;;;;;;3.49;3.02;;;;;;;21.15;55.24;100977.30;;;;-49
2019/09/16 08:33:55;;;;;;;4.51;2.93;;;;;;;21.17;55.17;100976.72;;;;-47
2019/09/16 08:36:55;;;;;;;3.97;3.09;;;;;;;21.18;55.23;100979.13;;;;-48
2019/09/16 08:39:54;;;;;;;3.99;3.00;;;;;;;21.20;55.28;100981.22;;;;-47
2019/09/16 08:42:55;;;;;;;3.36;2.98;;;;;;;21.22;55.37;100991.28;;;;-45
2019/09/16 08:45:55;;;;;;;3.37;2.92;;;;;;;21.23;55.50;100994.13;;;;-47
2019/09/16 08:48:55;;;;;;;3.75;3.11;;;;;;;21.25;55.37;100978.32;;;;-48
2019/09/16 08:51:55;;;;;;;3.94;3.02;;;;;;;21.26;55.39;100964.26;;;;-49
2019/09/16 08:54:55;;;;;;;3.95;3.05;;;;;;;21.26;55.39;100963.70;;;;-51
2019/09/16 08:57:55;;;;;;;4.72;2.94;;;;;;;21.29;55.35;100969.34;;;;-49
2019/09/16 09:00:55;;;;;;;3.39;3.09;;;;;;;21.29;55.24;100982.03;;;;-49
2019/09/16 09:03:55;;;;;;;4.78;3.19;;;;;;;21.27;55.46;100985.92;;;;-49
2019/09/16 09:06:55;;;;;;;4.51;3.10;;;;;;;21.28;55.30;100975.38;;;;-49
2019/09/16 09:09:55;;;;;;;5.01;3.00;;;;;;;21.28;55.26;100972.81;;;;-49
2019/09/16 09:12:55;;;;;;;4.37;2.89;;;;;;;21.28;55.14;100967.55;;;;-49
2019/09/16 09:15:55;;;;;;;4.09;3.09;;;;;;;21.28;55.10;100959.88;;;;-55
2019/09/16 09:18:55;;;;;;;4.41;3.02;;;;;;;21.27;55.15;100954.00;;;;-53
2019/09/16 09:21:54;;;;;;;4.08;2.92;;;;;;;21.30;55.20;100955.03;;;;-54
2019/09/16 09:24:55;;;;;;;3.00;2.68;;;;;;;21.32;55.26;100961.17;;;;-52
2019/09/16 09:27:55;;;;;;;4.62;2.93;;;;;;;21.33;55.29;100967.16;;;;-48
2019/09/16 09:30:55;;;;;;;5.06;2.82;;;;;;;21.33;55.51;100959.48;;;;-49
2019/09/16 09:33:55;;;;;;;4.49;3.04;;;;;;;21.37;55.51;100956.82;;;;-51
2019/09/16 09:36:55;;;;;;;7.41;2.96;;;;;;;21.41;55.52;100954.52;;;;-52
2019/09/16 09:39:55;;;;;;;6.47;2.86;;;;;;;21.38;55.86;100953.78;;;;-57
2019/09/16 09:42:55;;;;;;;9.56;2.93;;;;;;;21.38;55.51;100947.22;;;;-53
2019/09/16 09:45:55;;;;;;;4.68;2.85;;;;;;;21.38;55.43;100944.07;;;;-47
2019/09/16 09:48:55;;;;;;;6.50;2.86;;;;;;;21.39;55.44;100942.80;;;;-57
2019/09/16 09:51:55;;;;;;;5.82;2.81;;;;;;;21.39;55.31;100941.63;;;;-57
2019/09/16 09:54:55;;;;;;;5.53;2.91;;;;;;;21.37;55.39;100946.55;;;;-53
2019/09/16 09:57:55;;;;;;;3.59;2.72;;;;;;;21.37;55.29;100948.39;;;;-49
2019/09/16 10:00:55;;;;;;;3.86;2.83;;;;;;;21.37;55.20;100948.90;;;;-47
2019/09/16 10:03:54;;;;;;;4.59;2.79;;;;;;;21.36;55.23;100953.96;;;;-47
2019/09/16 10:06:54;;;;;;;3.61;2.78;;;;;;;21.36;55.16;100952.91;;;;-57
2019/09/16 10:09:54;;;;;;;4.66;2.90;;;;;;;21.35;55.12;100954.25;;;;-57
2019/09/16 10:12:55;;;;;;;3.59;2.95;;;;;;;21.35;55.15;100954.25;;;;-57
2019/09/16 10:15:55;;;;;;;4.42;2.74;;;;;;;21.35;55.07;100948.30;;;;-49
2019/09/16 10:18:55;;;;;;;4.81;2.82;;;;;;;21.36;55.04;100947.58;;;;-49
2019/09/16 10:21:55;;;;;;;4.86;2.91;;;;;;;21.36;55.02;100943.44;;;;-52
2019/09/16 10:24:54;;;;;;;3.63;2.73;;;;;;;21.36;55.03;100939.58;;;;-53
2019/09/16 10:27:54;;;;;;;3.33;2.84;;;;;;;21.35;54.97;100936.88;;;;-49
2019/09/16 10:30:55;;;;;;;4.06;2.78;;;;;;;21.36;54.96;100927.24;;;;-49
2019/09/16 10:33:55;;;;;;;3.99;2.83;;;;;;;21.35;55.00;100924.78;;;;-49
2019/09/16 10:36:55;;;;;;;3.09;2.69;;;;;;;21.35;55.05;100921.65;;;;-48
2019/09/16 10:39:55;;;;;;;7.27;2.99;;;;;;;21.35;55.03;100918.29;;;;-49
2019/09/16 10:42:55;;;;;;;6.42;2.94;;;;;;;21.38;55.11;100912.67;;;;-49
2019/09/16 10:45:55;;;;;;;4.55;2.91;;;;;;;21.38;55.13;100910.63;;;;-48
2019/09/16 10:48:54;;;;;;;6.93;2.90;;;;;;;21.40;55.13;100905.37;;;;-48
2019/09/16 10:51:54;;;;;;;7.62;3.11;;;;;;;21.41;55.10;100899.17;;;;-47
2019/09/16 10:54:55;;;;;;;5.77;2.66;;;;;;;21.43;55.08;100894.91;;;;-45
2019/09/16 10:57:55;;;;;;;3.52;2.71;;;;;;;21.44;55.07;100890.52;;;;-51
2019/09/16 11:00:55;;;;;;;8.07;2.99;;;;;;;21.43;55.00;100884.94;;;;-53
2019/09/16 11:03:55;;;;;;;4.79;2.72;;;;;;;21.44;55.12;100884.20;;;;-53
2019/09/16 11:06:55;;;;;;;4.02;2.79;;;;;;;21.43;55.08;100882.35;;;;-53
2019/09/16 11:09:55;;;;;;;7.55;2.88;;;;;;;21.44;54.99;100885.48;;;;-53
2019/09/16 11:12:55;;;;;;;5.83;2.90;;;;;;;21.44;55.00;100883.87;;;;-53
2019/09/16 11:15:55;;;;;;;8.15;2.96;;;;;;;21.44;54.99;100887.17;;;;-53
2019/09/16 11:18:55;;;;;;;5.08;2.83;;;;;;;21.44;54.93;100881.05;;;;-53
2019/09/16 11:21:55;;;;;;;4.63;2.65;;;;;;;21.44;54.90;100874.96;;;;-53
2019/09/16 11:24:55;;;;;;;3.98;2.77;;;;;;;21.44;54.86;100868.74;;;;-52
2019/09/16 11:27:54;;;;;;;3.75;2.65;;;;;;;21.43;54.94;100864.60;;;;-52
2019/09/16 11:30:54;;;;;;;4.03;2.64;;;;;;;21.43;54.91;100867.30;;;;-53
2019/09/16 11:33:54;;;;;;;3.39;2.71;;;;;;;21.43;54.90;100864.67;;;;-52
2019/09/16 11:36:55;;;;;;;4.09;2.70;;;;;;;21.43;54.87;100864.44;;;;-53
2019/09/16 11:39:58;;;;;;;3.45;2.55;;;;;;;21.43;54.86;100861.75;;;;-52
2019/09/16 11:42:55;;;;;;;2.97;2.58;;;;;;;21.44;54.84;100847.57;;;;-53
2019/09/16 11:45:55;;;;;;;3.19;2.57;;;;;;;21.43;54.85;100849.08;;;;-53
2019/09/16 11:48:54;;;;;;;3.81;2.73;;;;;;;21.43;54.79;100847.80;;;;-56
2019/09/16 11:51:55;;;;;;;4.87;2.69;;;;;;;21.44;54.93;100843.30;;;;-59
2019/09/16 11:54:55;;;;;;;3.18;2.51;;;;;;;21.47;54.89;100836.55;;;;-56
2019/09/16 11:57:55;;;;;;;4.33;2.55;;;;;;;21.48;55.05;100834.97;;;;-54
2019/09/16 12:00:55;;;;;;;6.63;2.78;;;;;;;21.47;54.96;100833.19;;;;-54
2019/09/16 12:03:55;;;;;;;3.43;2.63;;;;;;;21.48;55.03;100830.81;;;;-60
2019/09/16 12:06:55;;;;;;;3.11;2.76;;;;;;;21.49;55.00;100827.39;;;;-56
2019/09/16 12:09:54;;;;;;;4.12;2.89;;;;;;;21.51;55.00;100823.27;;;;-58
2019/09/16 12:12:54;;;;;;;5.03;2.67;;;;;;;21.52;55.06;100815.98;;;;-56
2019/09/16 12:15:54;;;;;;;6.27;2.85;;;;;;;21.51;55.05;100815.77;;;;-54
2019/09/16 12:18:55;;;;;;;4.01;2.59;;;;;;;21.51;55.05;100818.50;;;;-55
2019/09/16 12:21:55;;;;;;;6.04;2.74;;;;;;;21.50;55.12;100806.19;;;;-54
2019/09/16 12:24:55;;;;;;;5.15;2.55;;;;;;;21.52;54.99;100808.35;;;;-55
2019/09/16 12:27:54;;;;;;;3.13;2.41;;;;;;;21.51;55.00;100801.59;;;;-54
2019/09/16 12:30:55;;;;;;;3.97;2.61;;;;;;;21.50;55.03;100796.95;;;;-54
2019/09/16 12:33:55;;;;;;;3.85;2.55;;;;;;;21.50;54.97;100790.22;;;;-55
2019/09/16 12:36:55;;;;;;;4.19;2.44;;;;;;;21.50;54.94;100791.23;;;;-54
2019/09/16 12:39:55;;;;;;;4.29;2.51;;;;;;;21.50;54.95;100790.73;;;;-54
2019/09/16 12:42:55;;;;;;;3.03;2.39;;;;;;;21.50;54.90;100794.26;;;;-55
2019/09/16 12:48:55;;;;;;;4.24;2.61;;;;;;;21.50;54.87;100782.39;;;;-54
2019/09/16 12:51:54;;;;;;;3.19;2.64;;;;;;;21.49;54.89;100778.92;;;;-54
2019/09/16 12:54:54;;;;;;;4.58;2.73;;;;;;;21.49;54.88;100776.81;;;;-54
2019/09/16 12:57:54;;;;;;;6.28;2.67;;;;;;;21.49;54.90;100772.09;;;;-50
2019/09/16 13:00:55;;;;;;;4.01;2.69;;;;;;;21.49;54.90;100760.50;;;;-53
2019/09/16 13:03:55;;;;;;;3.56;2.57;;;;;;;21.50;54.90;100762.33;;;;-51
2019/09/16 13:06:55;;;;;;;4.52;2.91;;;;;;;21.52;55.00;100757.03;;;;-54
2019/09/16 13:09:54;;;;;;;4.20;2.65;;;;;;;21.54;55.00;100753.88;;;;-52
2019/09/16 13:12:54;;;;;;;5.55;2.59;;;;;;;21.54;55.23;100759.70;;;;-55
2019/09/16 13:15:55;;;;;;;3.69;2.40;;;;;;;21.55;55.16;100764.02;;;;-51
2019/09/16 13:18:55;;;;;;;5.05;2.45;;;;;;;21.57;55.14;100758.72;;;;-57
2019/09/16 13:21:55;;;;;;;4.15;2.55;;;;;;;21.58;55.16;100758.52;;;;-56
2019/09/16 13:24:55;;;;;;;4.47;2.54;;;;;;;21.59;55.16;100756.91;;;;-47
2019/09/16 13:27:55;;;;;;;3.61;2.42;;;;;;;21.61;55.12;100759.81;;;;-50
2019/09/16 13:30:54;;;;;;;4.43;2.55;;;;;;;21.59;55.18;100744.41;;;;-50
2019/09/16 13:33:55;;;;;;;2.97;2.40;;;;;;;21.60;55.22;100748.22;;;;-49
2019/09/16 13:36:55;;;;;;;3.79;2.46;;;;;;;21.59;55.17;100740.04;;;;-49
2019/09/16 13:39:54;;;;;;;2.94;2.27;;;;;;;21.59;55.13;100740.04;;;;-50
2019/09/16 13:42:55;;;;;;;3.95;2.42;;;;;;;21.59;55.06;100731.44;;;;-54
2019/09/16 13:45:55;;;;;;;5.48;2.50;;;;;;;21.59;55.09;100732.71;;;;-48
2019/09/16 13:48:54;;;;;;;4.77;2.23;;;;;;;21.58;55.04;100727.27;;;;-52
2019/09/16 13:51:55;;;;;;;4.45;2.62;;;;;;;21.60;55.03;100731.41;;;;-52
2019/09/16 13:54:55;;;;;;;5.43;2.59;;;;;;;21.60;55.05;100732.37;;;;-53
2019/09/16 13:57:55;;;;;;;4.11;2.52;;;;;;;21.59;55.03;100726.42;;;;-49
2019/09/16 14:00:55;;;;;;;5.33;2.49;;;;;;;21.58;55.09;100725.55;;;;-57
2019/09/16 14:03:55;;;;;;;3.64;2.47;;;;;;;21.60;55.05;100721.79;;;;-52
2019/09/16 14:06:55;;;;;;;4.01;2.57;;;;;;;21.61;55.03;100719.52;;;;-58
2019/09/16 14:09:54;;;;;;;7.35;2.63;;;;;;;21.60;55.21;100713.76;;;;-44
2019/09/16 14:12:54;;;;;;;3.87;2.45;;;;;;;21.63;55.22;100712.09;;;;-54
2019/09/16 14:15:54;;;;;;;4.46;2.65;;;;;;;21.63;55.18;100705.20;;;;-59
2019/09/16 14:18:55;;;;;;;4.70;2.51;;;;;;;21.65;55.19;100704.84;;;;-56
2019/09/16 14:21:55;;;;;;;3.51;2.30;;;;;;;21.65;55.22;100699.97;;;;-54
2019/09/16 14:24:55;;;;;;;4.12;2.29;;;;;;;21.66;55.16;100695.78;;;;-55
2019/09/16 14:27:55;;;;;;;4.81;2.49;;;;;;;21.67;55.16;100697.19;;;;-45
2019/09/16 14:30:54;;;;;;;5.07;2.31;;;;;;;21.66;55.08;100693.76;;;;-46
2019/09/16 14:33:54;;;;;;;3.10;2.51;;;;;;;21.67;55.04;100691.52;;;;-44
2019/09/16 14:36:55;;;;;;;5.01;2.60;;;;;;;21.67;54.97;100691.58;;;;-48
2019/09/16 14:39:55;;;;;;;3.90;2.37;;;;;;;21.67;55.03;100680.42;;;;-47
2019/09/16 14:42:55;;;;;;;3.01;2.32;;;;;;;21.68;55.04;100681.13;;;;-47
2019/09/16 14:45:55;;;;;;;3.93;2.25;;;;;;;21.68;54.92;100678.68;;;;-50
2019/09/16 14:48:55;;;;;;;4.01;2.29;;;;;;;21.69;54.93;100680.83;;;;-48
2019/09/16 14:51:54;;;;;;;4.39;2.52;;;;;;;21.69;54.90;100681.50;;;;-60
2019/09/16 14:54:54;;;;;;;4.89;2.27;;;;;;;21.68;54.93;100682.88;;;;-56
2019/09/16 14:57:54;;;;;;;4.33;2.40;;;;;;;21.69;54.96;100686.61;;;;-57
2019/09/16 15:00:54;;;;;;;3.13;2.23;;;;;;;21.69;54.89;100690.08;;;;-56
2019/09/16 15:03:55;;;;;;;3.53;2.30;;;;;;;21.68;54.93;100686.00;;;;-56
2019/09/16 15:06:55;;;;;;;3.26;2.29;;;;;;;21.67;54.91;100677.46;;;;-56
2019/09/16 15:09:54;;;;;;;6.35;2.42;;;;;;;21.67;54.87;100678.81;;;;-57
2019/09/16 15:12:54;;;;;;;3.29;2.32;;;;;;;21.67;54.87;100674.09;;;;-56
2019/09/16 15:15:55;;;;;;;4.54;2.25;;;;;;;21.66;54.86;100674.33;;;;-55
2019/09/16 15:18:54;;;;;;;3.13;1.88;;;;;;;21.63;54.84;100669.61;;;;-57
2019/09/16 15:22:10;;;;;;;3.17;2.19;;;;;;;21.65;54.89;100672.51;;;;-49
2019/09/16 15:24:55;;;;;;;3.82;2.09;;;;;;;21.64;54.92;100663.22;;;;-49
2019/09/16 15:27:55;;;;;;;3.98;2.13;;;;;;;21.65;54.86;100670.66;;;;-57
2019/09/16 15:30:54;;;;;;;3.89;2.22;;;;;;;21.64;54.84;100670.55;;;;-50
2019/09/16 15:33:55;;;;;;;3.60;2.23;;;;;;;21.64;54.86;100670.52;;;;-56
2019/09/16 15:36:54;;;;;;;6.66;2.50;;;;;;;21.64;54.84;100669.04;;;;-55
2019/09/16 15:39:54;;;;;;;5.87;2.33;;;;;;;21.64;54.86;100669.51;;;;-56
2019/09/16 15:42:54;;;;;;;3.97;2.22;;;;;;;21.63;54.83;100662.78;;;;-48
2019/09/16 15:45:55;;;;;;;3.13;2.27;;;;;;;21.63;54.81;100664.73;;;;-48
2019/09/16 15:48:54;;;;;;;2.91;2.05;;;;;;;21.63;54.83;100665.47;;;;-48
2019/09/16 15:51:54;;;;;;;2.65;2.09;;;;;;;21.62;54.85;100661.50;;;;-56
2019/09/16 15:54:54;;;;;;;4.12;2.30;;;;;;;21.63;54.80;100661.34;;;;-49
2019/09/16 15:57:54;;;;;;;2.70;2.10;;;;;;;21.62;54.82;100658.81;;;;-55
2019/09/16 16:00:55;;;;;;;2.89;2.22;;;;;;;21.63;54.81;100661.16;;;;-56
2019/09/16 16:03:55;;;;;;;2.39;2.18;;;;;;;21.63;54.83;100664.77;;;;-55
2019/09/16 16:06:55;;;;;;;2.31;2.01;;;;;;;21.62;54.81;100661.91;;;;-55
2019/09/16 16:09:54;;;;;;;2.27;1.95;;;;;;;21.61;54.80;100669.33;;;;-54
2019/09/16 16:12:54;;;;;;;2.71;2.09;;;;;;;21.61;54.83;100668.66;;;;-55
2019/09/16 16:15:54;;;;;;;2.61;2.13;;;;;;;21.60;54.80;100660.48;;;;-48
2019/09/16 16:18:54;;;;;;;3.04;2.09;;;;;;;21.60;54.82;100664.95;;;;-56
2019/09/16 16:21:54;;;;;;;2.91;2.10;;;;;;;21.61;54.79;100663.48;;;;-55
2019/09/16 16:24:55;;;;;;;3.15;2.08;;;;;;;21.61;54.78;100655.20;;;;-55
2019/09/16 16:27:55;;;;;;;5.13;2.07;;;;;;;21.60;54.78;100655.20;;;;-56
2019/09/16 16:30:55;;;;;;;3.99;2.06;;;;;;;21.61;54.81;100646.53;;;;-55
2019/09/16 16:33:54;;;;;;;2.50;1.98;;;;;;;21.61;54.80;100650.40;;;;-54
2019/09/16 16:36:54;;;;;;;2.87;1.85;;;;;;;21.60;54.81;100652.41;;;;-56
2019/09/16 16:39:55;;;;;;;2.57;2.10;;;;;;;21.60;54.81;100656.84;;;;-55
2019/09/16 16:42:55;;;;;;;3.05;2.10;;;;;;;21.60;54.81;100656.41;;;;-55
2019/09/16 16:45:55;;;;;;;2.14;1.95;;;;;;;21.59;54.82;100656.34;;;;-56